Time;durP1;ratioP1;P1;durP2;ratioP2;P2;SDS_P1;SDS_P2;PMS_P1;PMS_P2;Temp;Humidity;BMP_temperature;BMP_pressure;BME280_temperature;BME280_humidity;BME280_pressure;Samples;Min_cycle;Max_cycle;Signal;HPM_P1;HPM_P2
2023/02/22 00:01:00;;;;;;;29.17;11.48;;;;;;;;;;5093364;28;20111;-78
2023/02/22 00:03:27;;;;;;;33.83;11.75;;;;;;;;;;5093414;28;20034;-78
2023/02/22 00:05:57;;;;;;;28.10;10.77;;;;;;;;;;5094867;28;20107;-78
2023/02/22 00:08:23;;;;;;;25.17;10.40;;;;;;;;;;5091354;28;20733;-78
2023/02/22 00:10:50;;;;;;;29.63;12.82;;;;;;;;;;5084310;28;20016;-78
2023/02/22 00:13:16;;;;;;;31.42;11.65;;;;;;;;;;5077984;28;20414;-78
2023/02/22 00:15:41;;;;;;;32.10;11.82;;;;;;;;;;5072786;28;20025;-78
2023/02/22 00:18:09;;;;;;;31.13;11.57;;;;;;;;;;5074376;28;20043;-78
2023/02/22 00:20:37;;;;;;;29.30;11.48;;;;;;;;;;5071575;28;20027;-78
2023/02/22 00:23:05;;;;;;;31.40;11.88;;;;;;;;;;5085444;28;20075;-78
2023/02/22 00:25:31;;;;;;;33.65;11.77;;;;;;;;;;5094378;28;20520;-78
2023/02/22 00:27:57;;;;;;;33.93;12.30;;;;;;;;;;5094229;28;20016;-78
2023/02/22 00:30:25;;;;;;;36.83;12.23;;;;;;;;;;5092473;28;20020;-78
2023/02/22 00:32:50;;;;;;;27.07;10.97;;;;;;;;;;5089963;28;20037;-77
2023/02/22 00:35:17;;;;;;;32.67;11.83;;;;;;;;;;5093765;28;20119;-78
2023/02/22 00:37:42;;;;;;;32.13;12.70;;;;;;;;;;5094388;28;20032;-78
2023/02/22 00:40:09;;;;;;;33.47;11.47;;;;;;;;;;5092585;28;20020;-78
2023/02/22 00:42:34;;;;;;;34.40;11.80;;;;;;;;;;5093054;28;20131;-78
2023/02/22 00:44:59;;;;;;;33.70;11.40;;;;;;;;;;5088229;28;20518;-78
2023/02/22 00:47:26;;;;;;;30.13;11.98;;;;;;;;;;5092727;28;20016;-78
2023/02/22 00:49:51;;;;;;;27.80;11.55;;;;;;;;;;5093962;28;20008;-78
2023/02/22 00:52:16;;;;;;;30.08;11.00;;;;;;;;;;5093279;28;20081;-78
2023/02/22 00:54:41;;;;;;;26.63;10.93;;;;;;;;;;5092443;28;20032;-78
2023/02/22 00:57:07;;;;;;;29.20;11.43;;;;;;;;;;5091211;28;20035;-78
2023/02/22 00:59:32;;;;;;;27.63;10.82;;;;;;;;;;5074654;28;20032;-78
2023/02/22 01:01:57;;;;;;;26.55;11.10;;;;;;;;;;5088721;28;20328;-78
2023/02/22 01:04:22;;;;;;;26.52;10.25;;;;;;;;;;5093205;28;20031;-78
2023/02/22 01:06:47;;;;;;;34.13;11.55;;;;;;;;;;5093745;28;20024;-78
2023/02/22 01:09:13;;;;;;;28.73;10.63;;;;;;;;;;5088548;28;20016;-78
2023/02/22 01:11:38;;;;;;;29.63;10.93;;;;;;;;;;5084504;28;20549;-78
2023/02/22 01:14:03;;;;;;;25.53;10.40;;;;;;;;;;5092937;28;20447;-78
2023/02/22 01:16:28;;;;;;;27.53;10.53;;;;;;;;;;5093533;28;20065;-78
2023/02/22 01:18:53;;;;;;;27.87;10.77;;;;;;;;;;5093414;28;20020;-78
2023/02/22 01:21:19;;;;;;;29.60;12.27;;;;;;;;;;5087521;28;20085;-78
2023/02/22 01:23:44;;;;;;;29.57;11.60;;;;;;;;;;5084545;28;20024;-78
2023/02/22 01:26:10;;;;;;;31.03;12.83;;;;;;;;;;5093046;28;20363;-78
2023/02/22 01:28:36;;;;;;;31.20;11.57;;;;;;;;;;5084652;28;20051;-78
2023/02/22 01:31:01;;;;;;;31.17;11.43;;;;;;;;;;5088614;28;20123;-78
2023/02/22 01:33:27;;;;;;;30.23;11.03;;;;;;;;;;5093091;28;20027;-78
2023/02/22 01:35:52;;;;;;;27.03;10.53;;;;;;;;;;5092870;28;20455;-78
2023/02/22 01:38:17;;;;;;;28.27;10.77;;;;;;;;;;5091984;28;20023;-78
2023/02/22 01:40:46;;;;;;;25.57;10.23;;;;;;;;;;5087161;28;20740;-78
2023/02/22 01:43:28;;;;;;;25.45;10.20;;;;;;;;;;5092856;28;20024;-78
2023/02/22 01:45:53;;;;;;;26.73;9.35;;;;;;;;;;5091195;28;20111;-79
2023/02/22 01:48:39;;;;;;;24.08;9.70;;;;;;;;;;5091818;28;20120;-78
2023/02/22 01:51:09;;;;;;;22.42;8.48;;;;;;;;;;5091262;28;20107;-78
2023/02/22 01:53:38;;;;;;;21.90;8.57;;;;;;;;;;5065113;28;20024;-78
2023/02/22 01:56:05;;;;;;;21.00;9.13;;;;;;;;;;5092908;28;20379;-78
2023/02/22 01:58:32;;;;;;;20.73;9.13;;;;;;;;;;5092927;28;20012;-78
2023/02/22 02:00:57;;;;;;;22.02;8.35;;;;;;;;;;5091239;28;20027;-78
2023/02/22 02:03:26;;;;;;;20.97;9.33;;;;;;;;;;5085854;28;20017;-78
2023/02/22 02:05:53;;;;;;;18.95;8.52;;;;;;;;;;5089436;28;20016;-78
2023/02/22 02:08:30;;;;;;;18.70;7.40;;;;;;;;;;5092671;28;20748;-78
2023/02/22 02:10:56;;;;;;;24.08;9.25;;;;;;;;;;5084229;28;20012;-78
2023/02/22 02:13:22;;;;;;;17.25;7.70;;;;;;;;;;5092076;28;20016;-78
2023/02/22 02:15:48;;;;;;;18.80;7.78;;;;;;;;;;5082069;28;20066;-76
2023/02/22 02:18:14;;;;;;;18.98;7.65;;;;;;;;;;5091887;28;20019;-78
2023/02/22 02:20:57;;;;;;;19.63;8.18;;;;;;;;;;5092100;28;20477;-78
2023/02/22 02:23:34;;;;;;;21.80;7.93;;;;;;;;;;5092014;28;20065;-78
2023/02/22 02:25:59;;;;;;;20.13;9.25;;;;;;;;;;5091859;28;20109;-78
2023/02/22 02:28:43;;;;;;;16.92;8.40;;;;;;;;;;5090227;28;20040;-78
2023/02/22 02:31:34;;;;;;;16.33;7.40;;;;;;;;;;5092237;28;20127;-78
2023/02/22 02:34:04;;;;;;;18.52;7.65;;;;;;;;;;5075828;28;20060;-78
2023/02/22 02:36:35;;;;;;;20.80;8.30;;;;;;;;;;5092087;28;20023;-78
2023/02/22 02:39:18;;;;;;;18.95;8.07;;;;;;;;;;5088055;28;20494;-78
2023/02/22 02:41:46;;;;;;;18.88;7.63;;;;;;;;;;5091860;28;20165;-78
2023/02/22 02:44:18;;;;;;;17.83;8.20;;;;;;;;;;5091138;28;20016;-78
2023/02/22 02:46:46;;;;;;;18.52;7.95;;;;;;;;;;5067263;28;20115;-78
2023/02/22 02:49:18;;;;;;;21.77;8.52;;;;;;;;;;5090145;28;20020;-78
2023/02/22 02:51:46;;;;;;;15.55;7.10;;;;;;;;;;5083924;28;20033;-78
2023/02/22 02:54:13;;;;;;;15.18;6.95;;;;;;;;;;5085092;28;20044;-78
2023/02/22 02:56:39;;;;;;;16.48;6.95;;;;;;;;;;5091620;28;20374;-78
2023/02/22 02:59:22;;;;;;;12.60;5.78;;;;;;;;;;5091627;28;20050;-78
2023/02/22 03:02:03;;;;;;;15.23;5.93;;;;;;;;;;5084215;28;20074;-79
2023/02/22 03:04:36;;;;;;;12.77;5.50;;;;;;;;;;5084272;28;20028;-78
2023/02/22 03:07:04;;;;;;;14.45;6.63;;;;;;;;;;5091800;28;20027;-78
2023/02/22 03:09:53;;;;;;;15.75;6.90;;;;;;;;;;5091287;28;20030;-78
2023/02/22 03:12:24;;;;;;;18.52;7.57;;;;;;;;;;5089875;28;20024;-78
2023/02/22 03:14:59;;;;;;;18.77;8.32;;;;;;;;;;5091316;28;20060;-78
2023/02/22 03:17:35;;;;;;;15.18;6.88;;;;;;;;;;5090044;28;20016;-78
2023/02/22 03:20:05;;;;;;;15.80;6.43;;;;;;;;;;5091154;28;20084;-78
2023/02/22 03:22:32;;;;;;;15.05;7.00;;;;;;;;;;5091402;28;20031;-78
2023/02/22 03:25:07;;;;;;;14.82;6.90;;;;;;;;;;5085940;28;20133;-78
2023/02/22 03:27:42;;;;;;;14.55;6.53;;;;;;;;;;5091771;28;20059;-78
2023/02/22 03:30:09;;;;;;;14.15;6.38;;;;;;;;;;5089734;28;20016;-78
2023/02/22 03:32:36;;;;;;;17.42;7.32;;;;;;;;;;5091402;28;20093;-78
2023/02/22 03:35:06;;;;;;;15.77;6.30;;;;;;;;;;5085627;28;20206;-78
2023/02/22 03:37:33;;;;;;;15.07;7.60;;;;;;;;;;5091175;28;20109;-78
2023/02/22 03:39:59;;;;;;;19.33;7.50;;;;;;;;;;5090028;28;20077;-78
2023/02/22 03:42:27;;;;;;;16.55;7.00;;;;;;;;;;5091153;28;20098;-78
2023/02/22 03:44:56;;;;;;;17.08;7.93;;;;;;;;;;5079746;28;20029;-78
2023/02/22 03:47:27;;;;;;;13.88;6.97;;;;;;;;;;5087675;28;20020;-77
2023/02/22 03:49:59;;;;;;;14.93;6.72;;;;;;;;;;5089856;28;20012;-78
2023/02/22 03:52:24;;;;;;;16.77;6.60;;;;;;;;;;5091218;28;20098;-78
2023/02/22 03:54:53;;;;;;;12.52;6.22;;;;;;;;;;5091093;28;20064;-78
2023/02/22 03:57:25;;;;;;;13.80;6.53;;;;;;;;;;5084870;28;20032;-78
2023/02/22 03:59:50;;;;;;;16.63;6.93;;;;;;;;;;5089309;28;20032;-78
2023/02/22 04:02:17;;;;;;;15.50;6.90;;;;;;;;;;5089710;28;20356;-78
2023/02/22 04:04:43;;;;;;;17.85;7.63;;;;;;;;;;5090915;28;20465;-78
2023/02/22 04:07:08;;;;;;;17.67;7.75;;;;;;;;;;5086546;28;20115;-78
2023/02/22 04:09:33;;;;;;;17.27;7.15;;;;;;;;;;5087914;28;20044;-78
2023/02/22 04:11:58;;;;;;;13.27;6.43;;;;;;;;;;5090978;28;20065;-78
2023/02/22 04:14:23;;;;;;;13.80;6.45;;;;;;;;;;5090603;28;20095;-78
2023/02/22 04:16:49;;;;;;;15.52;6.85;;;;;;;;;;5091055;28;20519;-78
2023/02/22 04:19:14;;;;;;;16.90;6.97;;;;;;;;;;5085600;28;20108;-78
2023/02/22 04:21:39;;;;;;;14.88;6.70;;;;;;;;;;5085650;28;20024;-78
2023/02/22 04:24:05;;;;;;;14.90;7.05;;;;;;;;;;5089554;28;20016;-78
2023/02/22 04:26:30;;;;;;;13.40;6.25;;;;;;;;;;5090641;28;20091;-78
2023/02/22 04:28:55;;;;;;;10.75;5.72;;;;;;;;;;5093342;28;20088;-78
2023/02/22 04:31:20;;;;;;;13.50;6.28;;;;;;;;;;5092813;28;20501;-78
2023/02/22 04:33:45;;;;;;;11.63;5.55;;;;;;;;;;5089202;28;20049;-78
2023/02/22 04:36:12;;;;;;;15.90;6.53;;;;;;;;;;5094196;28;20024;-78
2023/02/22 04:38:37;;;;;;;12.73;6.40;;;;;;;;;;5094466;28;20119;-78
2023/02/22 04:41:02;;;;;;;14.98;6.40;;;;;;;;;;5092674;28;20099;-78
2023/02/22 04:43:28;;;;;;;14.70;6.20;;;;;;;;;;5092363;28;20016;-78
2023/02/22 04:45:53;;;;;;;13.75;6.15;;;;;;;;;;5073726;28;20016;-78
2023/02/22 04:48:18;;;;;;;12.90;6.05;;;;;;;;;;5093826;28;20035;-78
2023/02/22 04:50:43;;;;;;;13.88;6.60;;;;;;;;;;5093738;28;20054;-78
2023/02/22 04:53:09;;;;;;;11.27;6.00;;;;;;;;;;5094079;28;20091;-78
2023/02/22 04:55:34;;;;;;;11.98;5.90;;;;;;;;;;5094018;28;20103;-78
2023/02/22 04:57:59;;;;;;;13.23;6.25;;;;;;;;;;5079696;28;20047;-78
2023/02/22 05:00:24;;;;;;;13.38;6.80;;;;;;;;;;5094085;28;20107;-78
2023/02/22 05:02:50;;;;;;;12.50;6.07;;;;;;;;;;5093695;28;20069;-78
2023/02/22 05:05:16;;;;;;;14.77;7.53;;;;;;;;;;5093681;28;20031;-78
2023/02/22 05:07:41;;;;;;;15.67;7.07;;;;;;;;;;5092031;28;20050;-78
2023/02/22 05:10:07;;;;;;;17.67;7.33;;;;;;;;;;5080014;28;20046;-78
2023/02/22 05:12:32;;;;;;;16.30;7.60;;;;;;;;;;5088594;28;20024;-78
2023/02/22 05:14:57;;;;;;;17.07;7.20;;;;;;;;;;5093550;28;20031;-78
2023/02/22 05:17:22;;;;;;;13.83;6.63;;;;;;;;;;5092259;28;20069;-78
2023/02/22 05:19:47;;;;;;;18.23;8.20;;;;;;;;;;5092720;28;20531;-77
2023/02/22 05:22:13;;;;;;;18.27;7.20;;;;;;;;;;5091102;28;20429;-77
2023/02/22 05:24:38;;;;;;;14.40;6.97;;;;;;;;;;5093187;28;20405;-78
2023/02/22 05:27:03;;;;;;;13.47;6.73;;;;;;;;;;5091949;28;20008;-79
2023/02/22 05:29:28;;;;;;;15.37;7.17;;;;;;;;;;5091858;28;20020;-78
2023/02/22 05:31:53;;;;;;;15.77;7.37;;;;;;;;;;5092069;28;20024;-78
2023/02/22 05:34:19;;;;;;;16.37;6.73;;;;;;;;;;5079822;28;20019;-78
2023/02/22 05:36:45;;;;;;;15.80;7.37;;;;;;;;;;5093266;28;20442;-78
2023/02/22 05:39:11;;;;;;;16.05;7.20;;;;;;;;;;5091800;28;20039;-78
2023/02/22 05:41:36;;;;;;;15.77;6.47;;;;;;;;;;5093020;28;20028;-78
2023/02/22 05:44:01;;;;;;;14.10;6.43;;;;;;;;;;5088906;28;20267;-78
2023/02/22 05:46:27;;;;;;;15.17;6.77;;;;;;;;;;5072768;28;20091;-78
2023/02/22 05:48:52;;;;;;;13.33;6.33;;;;;;;;;;5093054;28;20039;-78
2023/02/22 05:51:18;;;;;;;11.38;5.53;;;;;;;;;;5093123;28;20020;-78
2023/02/22 05:53:43;;;;;;;12.60;5.70;;;;;;;;;;5092535;28;20027;-78
2023/02/22 05:56:08;;;;;;;13.15;5.85;;;;;;;;;;5090305;28;20028;-78
2023/02/22 05:58:34;;;;;;;13.67;6.27;;;;;;;;;;5083528;28;20008;-78
2023/02/22 06:00:59;;;;;;;14.30;6.63;;;;;;;;;;5092640;28;20054;-78
2023/02/22 06:03:24;;;;;;;14.80;5.83;;;;;;;;;;5092810;28;20028;-78
2023/02/22 06:05:49;;;;;;;13.40;6.33;;;;;;;;;;5092231;28;20031;-78
2023/02/22 06:08:16;;;;;;;15.47;6.20;;;;;;;;;;5091262;28;20016;-78
2023/02/22 06:10:42;;;;;;;12.47;6.40;;;;;;;;;;5084442;28;20421;-78
2023/02/22 06:13:07;;;;;;;12.47;5.57;;;;;;;;;;5092011;28;20008;-78
2023/02/22 06:15:32;;;;;;;13.60;6.07;;;;;;;;;;5092318;28;20012;-78
2023/02/22 06:17:57;;;;;;;14.17;6.53;;;;;;;;;;5092507;28;20426;-78
2023/02/22 06:20:24;;;;;;;13.40;6.43;;;;;;;;;;5088953;28;20078;-78
2023/02/22 06:22:50;;;;;;;12.93;6.07;;;;;;;;;;5088995;28;20490;-78
2023/02/22 06:25:17;;;;;;;12.20;5.60;;;;;;;;;;5092243;28;20016;-78
2023/02/22 06:27:42;;;;;;;17.27;6.50;;;;;;;;;;5092179;28;20328;-78
2023/02/22 06:30:08;;;;;;;14.87;6.50;;;;;;;;;;5090299;28;20008;-78
2023/02/22 06:32:33;;;;;;;14.20;6.50;;;;;;;;;;5085647;28;20020;-78
2023/02/22 06:34:58;;;;;;;15.47;7.17;;;;;;;;;;5089413;28;20046;-78
2023/02/22 06:37:24;;;;;;;17.10;7.10;;;;;;;;;;5092665;28;20080;-78
2023/02/22 06:39:49;;;;;;;13.87;6.27;;;;;;;;;;5090181;28;20446;-78
2023/02/22 06:42:14;;;;;;;12.63;5.90;;;;;;;;;;5092215;28;20561;-78
2023/02/22 06:44:39;;;;;;;11.17;5.93;;;;;;;;;;5082483;28;20093;-78
2023/02/22 06:47:04;;;;;;;12.47;5.90;;;;;;;;;;5092061;28;20035;-77
2023/02/22 06:49:30;;;;;;;12.70;5.77;;;;;;;;;;5091716;28;20012;-78
2023/02/22 06:51:55;;;;;;;14.13;6.33;;;;;;;;;;5091009;28;20045;-78
2023/02/22 06:54:20;;;;;;;12.73;6.47;;;;;;;;;;5090629;28;20792;-78
2023/02/22 06:56:46;;;;;;;16.93;7.07;;;;;;;;;;5083540;28;20141;-78
2023/02/22 06:59:11;;;;;;;14.10;6.30;;;;;;;;;;5090256;28;20462;-78
2023/02/22 07:01:39;;;;;;;16.37;8.13;;;;;;;;;;5091773;28;20028;-78
2023/02/22 07:04:04;;;;;;;21.27;9.03;;;;;;;;;;5090130;28;20380;-78
2023/02/22 07:06:29;;;;;;;21.53;9.50;;;;;;;;;;5091829;28;20035;-78
2023/02/22 07:08:54;;;;;;;19.60;9.30;;;;;;;;;;5084827;28;20020;-78
2023/02/22 07:11:19;;;;;;;18.13;7.90;;;;;;;;;;5088858;28;20035;-77
2023/02/22 07:13:45;;;;;;;14.97;7.40;;;;;;;;;;5070240;28;20017;-78
2023/02/22 07:16:10;;;;;;;15.20;6.87;;;;;;;;;;5071255;28;20020;-78
2023/02/22 07:18:35;;;;;;;15.57;6.77;;;;;;;;;;5074335;28;20015;-78
2023/02/22 07:21:00;;;;;;;12.80;5.93;;;;;;;;;;5076986;28;20020;-78
2023/02/22 07:23:25;;;;;;;17.23;7.50;;;;;;;;;;5072324;28;20021;-78
2023/02/22 07:25:51;;;;;;;16.23;7.40;;;;;;;;;;5073381;28;20107;-78
2023/02/22 07:28:16;;;;;;;16.93;7.20;;;;;;;;;;5082693;28;20020;-78
2023/02/22 07:30:42;;;;;;;13.10;6.20;;;;;;;;;;5084955;28;20017;-78
2023/02/22 07:33:08;;;;;;;13.53;6.80;;;;;;;;;;5082322;28;20080;-79
2023/02/22 07:35:37;;;;;;;16.97;7.77;;;;;;;;;;5072488;28;20049;-78
2023/02/22 07:38:04;;;;;;;14.87;6.77;;;;;;;;;;5070594;28;20032;-78
2023/02/22 07:40:30;;;;;;;14.80;6.70;;;;;;;;;;5083870;28;20036;-78
2023/02/22 07:42:59;;;;;;;17.03;6.60;;;;;;;;;;5086444;28;20023;-78
2023/02/22 07:45:27;;;;;;;16.23;6.80;;;;;;;;;;5080223;28;20047;-78
2023/02/22 07:47:52;;;;;;;13.77;6.53;;;;;;;;;;5077019;28;20099;-78
2023/02/22 07:50:18;;;;;;;12.67;6.57;;;;;;;;;;5089483;28;20854;-78
2023/02/22 07:52:47;;;;;;;13.57;6.43;;;;;;;;;;5080609;28;20027;-78
2023/02/22 07:55:13;;;;;;;15.30;7.30;;;;;;;;;;5068117;28;20545;-78
2023/02/22 07:57:38;;;;;;;17.13;7.13;;;;;;;;;;5067794;28;20022;-78
2023/02/22 08:00:03;;;;;;;16.20;7.43;;;;;;;;;;5068351;28;20785;-78
2023/02/22 08:02:29;;;;;;;15.67;6.67;;;;;;;;;;5069357;28;20024;-78
2023/02/22 08:04:54;;;;;;;17.83;8.03;;;;;;;;;;5093406;28;20031;-78
2023/02/22 08:07:19;;;;;;;19.37;7.17;;;;;;;;;;5079566;28;20013;-78
2023/02/22 08:09:44;;;;;;;16.83;6.70;;;;;;;;;;5080406;28;20059;-78
2023/02/22 08:12:09;;;;;;;17.83;7.17;;;;;;;;;;5075958;28;20048;-78
2023/02/22 08:14:35;;;;;;;12.80;6.83;;;;;;;;;;5089475;28;20081;-78
2023/02/22 08:17:00;;;;;;;16.57;6.97;;;;;;;;;;5093224;28;20024;-78
2023/02/22 08:19:25;;;;;;;16.87;7.80;;;;;;;;;;5075090;28;20111;-78
2023/02/22 08:21:50;;;;;;;14.83;7.07;;;;;;;;;;5090610;28;20028;-78
2023/02/22 08:24:15;;;;;;;15.87;7.33;;;;;;;;;;5092587;28;20387;-78
2023/02/22 08:26:44;;;;;;;15.87;7.07;;;;;;;;;;5094325;28;20024;-79
2023/02/22 08:29:10;;;;;;;19.50;7.20;;;;;;;;;;5091392;28;20050;-79
2023/02/22 08:31:35;;;;;;;16.00;6.70;;;;;;;;;;5094796;28;20028;-79
2023/02/22 08:34:00;;;;;;;15.02;7.05;;;;;;;;;;5085626;28;20562;-79
2023/02/22 08:36:26;;;;;;;15.23;7.53;;;;;;;;;;5084244;28;20134;-78
2023/02/22 08:38:51;;;;;;;16.70;7.20;;;;;;;;;;5075586;28;20028;-78
2023/02/22 08:41:16;;;;;;;15.68;7.05;;;;;;;;;;5087563;28;20023;-78
2023/02/22 08:43:41;;;;;;;14.70;6.53;;;;;;;;;;5076076;28;20048;-78
2023/02/22 08:46:06;;;;;;;17.88;7.00;;;;;;;;;;5074074;28;20132;-79
2023/02/22 08:48:31;;;;;;;15.10;7.25;;;;;;;;;;5084330;28;20420;-78
2023/02/22 08:50:57;;;;;;;13.52;6.63;;;;;;;;;;5080644;28;20028;-78
2023/02/22 08:53:22;;;;;;;18.20;7.25;;;;;;;;;;5082744;28;20051;-78
2023/02/22 08:55:48;;;;;;;14.85;7.45;;;;;;;;;;5080563;28;20030;-78
2023/02/22 08:58:13;;;;;;;15.77;5.70;;;;;;;;;;5093424;28;20065;-78
2023/02/22 09:00:39;;;;;;;18.87;6.50;;;;;;;;;;5080065;28;20029;-79
2023/02/22 09:03:06;;;;;;;14.60;7.10;;;;;;;;;;5084123;28;20022;-78
2023/02/22 09:05:31;;;;;;;14.82;6.70;;;;;;;;;;5077809;28;20024;-79
2023/02/22 09:07:56;;;;;;;12.83;6.43;;;;;;;;;;5090575;28;20012;-79
2023/02/22 09:10:24;;;;;;;15.53;7.07;;;;;;;;;;5092121;28;20021;-79
2023/02/22 09:12:55;;;;;;;14.35;7.15;;;;;;;;;;5072723;28;20024;-79
2023/02/22 09:15:21;;;;;;;14.55;7.47;;;;;;;;;;5068911;28;20016;-78
2023/02/22 09:17:46;;;;;;;19.17;7.83;;;;;;;;;;5071980;28;20032;-79
2023/02/22 09:20:11;;;;;;;16.33;7.55;;;;;;;;;;5080412;28;20104;-79
2023/02/22 09:22:37;;;;;;;13.85;6.65;;;;;;;;;;5087619;28;20386;-79
2023/02/22 09:25:02;;;;;;;15.15;7.18;;;;;;;;;;5082049;28;20498;-79
2023/02/22 09:27:27;;;;;;;14.65;5.15;;;;;;;;;;5079721;28;20012;-79
2023/02/22 09:29:53;;;;;;;17.67;6.93;;;;;;;;;;5083428;28;20090;-79
2023/02/22 09:32:18;;;;;;;13.32;6.35;;;;;;;;;;5078917;28;20012;-79
2023/02/22 09:34:44;;;;;;;14.02;6.63;;;;;;;;;;5090446;28;20415;-78
2023/02/22 09:37:10;;;;;;;11.65;4.82;;;;;;;;;;5075651;28;20032;-79
2023/02/22 09:39:36;;;;;;;8.65;3.95;;;;;;;;;;5091374;28;20110;-79
2023/02/22 09:42:14;;;;;;;16.63;6.68;;;;;;;;;;5074597;28;20387;-79
2023/02/22 09:44:52;;;;;;;12.45;5.25;;;;;;;;;;5081436;28;20027;-79
2023/02/22 09:47:37;;;;;;;15.18;7.10;;;;;;;;;;5086093;28;20048;-81
2023/02/22 09:50:14;;;;;;;15.05;7.10;;;;;;;;;;5084002;28;20093;-81
2023/02/22 09:52:42;;;;;;;13.82;6.75;;;;;;;;;;5073479;28;20016;-81
2023/02/22 09:55:22;;;;;;;14.32;7.13;;;;;;;;;;5071714;28;20025;-81
2023/02/22 09:57:47;;;;;;;17.40;7.80;;;;;;;;;;5077026;28;20527;-82
2023/02/22 10:00:12;;;;;;;18.10;8.50;;;;;;;;;;5084564;28;20019;-79
2023/02/22 10:03:05;;;;;;;16.00;7.35;;;;;;;;;;5077926;28;20028;-79
2023/02/22 10:05:33;;;;;;;15.75;7.38;;;;;;;;;;5052262;28;20036;-79
2023/02/22 10:08:04;;;;;;;15.13;7.50;;;;;;;;;;5086915;28;20088;-79
2023/02/22 10:10:32;;;;;;;19.08;7.85;;;;;;;;;;5084263;28;20019;-79
2023/02/22 10:13:06;;;;;;;13.55;6.78;;;;;;;;;;5092544;28;20094;-79
2023/02/22 10:15:34;;;;;;;18.75;7.65;;;;;;;;;;5091256;28;20020;-79
2023/02/22 10:18:08;;;;;;;19.73;8.18;;;;;;;;;;5090709;28;20059;-79
2023/02/22 10:20:36;;;;;;;23.77;9.45;;;;;;;;;;5090210;28;20521;-78
2023/02/22 10:23:01;;;;;;;16.67;7.28;;;;;;;;;;5083794;28;20019;-79
2023/02/22 10:25:27;;;;;;;18.58;8.70;;;;;;;;;;5077048;28;20027;-79
2023/02/22 10:27:56;;;;;;;15.55;6.60;;;;;;;;;;5079265;28;20520;-79
2023/02/22 10:30:32;;;;;;;17.38;8.40;;;;;;;;;;5086635;28;20020;-79
2023/02/22 10:33:02;;;;;;;15.93;7.00;;;;;;;;;;5088230;28;20069;-79
2023/02/22 10:35:31;;;;;;;16.65;6.97;;;;;;;;;;5087992;28;20117;-79
2023/02/22 10:38:05;;;;;;;14.05;7.72;;;;;;;;;;5086019;28;20170;-81
2023/02/22 10:40:31;;;;;;;20.50;7.57;;;;;;;;;;5090248;28;20600;-80
2023/02/22 10:43:06;;;;;;;16.88;7.20;;;;;;;;;;5079366;28;20140;-81
2023/02/22 10:45:33;;;;;;;18.20;8.75;;;;;;;;;;5069017;28;20028;-79
2023/02/22 10:48:17;;;;;;;19.15;7.45;;;;;;;;;;5074994;28;20024;-80
2023/02/22 10:50:43;;;;;;;19.45;7.68;;;;;;;;;;5074012;28;20023;-80
2023/02/22 10:53:09;;;;;;;18.35;7.28;;;;;;;;;;5078722;28;20063;-80
2023/02/22 10:55:34;;;;;;;16.15;7.03;;;;;;;;;;5085078;28;20052;-80
2023/02/22 10:58:07;;;;;;;16.45;7.53;;;;;;;;;;5081168;28;20023;-80
2023/02/22 11:00:38;;;;;;;30.35;10.45;;;;;;;;;;5080953;28;20044;-80
2023/02/22 11:03:17;;;;;;;24.25;9.98;;;;;;;;;;5081507;28;20028;-80
2023/02/22 11:05:42;;;;;;;17.92;8.32;;;;;;;;;;5074600;28;20146;-80
2023/02/22 11:08:20;;;;;;;15.38;7.68;;;;;;;;;;5071753;28;20499;-80
2023/02/22 11:10:49;;;;;;;15.65;7.30;;;;;;;;;;5081370;28;20566;-80
2023/02/22 11:13:28;;;;;;;12.70;6.25;;;;;;;;;;5075125;28;20478;-79
2023/02/22 11:15:56;;;;;;;14.73;7.05;;;;;;;;;;5084246;28;20407;-80
2023/02/22 11:18:27;;;;;;;14.43;7.05;;;;;;;;;;5075349;28;20107;-79
2023/02/22 11:21:00;;;;;;;13.07;6.68;;;;;;;;;;5075285;28;20024;-80
2023/02/22 11:23:26;;;;;;;11.15;6.07;;;;;;;;;;5072968;28;20044;-80
2023/02/22 11:26:00;;;;;;;12.73;6.05;;;;;;;;;;5088123;28;20052;-80
2023/02/22 11:28:31;;;;;;;14.25;6.13;;;;;;;;;;5074109;28;20032;-79
2023/02/22 11:30:57;;;;;;;16.80;6.95;;;;;;;;;;5080260;28;20013;-79
2023/02/22 11:33:24;;;;;;;15.60;6.63;;;;;;;;;;5072100;28;20021;-80
2023/02/22 11:35:51;;;;;;;14.82;6.38;;;;;;;;;;5079606;28;20481;-79
2023/02/22 11:38:20;;;;;;;17.75;7.65;;;;;;;;;;5085668;28;20356;-79
2023/02/22 11:40:45;;;;;;;20.10;8.05;;;;;;;;;;5087622;28;20025;-80
2023/02/22 11:43:15;;;;;;;14.93;6.38;;;;;;;;;;5081744;28;20024;-81
2023/02/22 11:45:55;;;;;;;15.45;7.40;;;;;;;;;;5075296;28;20042;-81
2023/02/22 11:48:22;;;;;;;16.88;8.00;;;;;;;;;;5084554;28;20016;-81
2023/02/22 11:50:50;;;;;;;13.68;5.63;;;;;;;;;;5094951;28;20012;-82
2023/02/22 11:53:15;;;;;;;17.98;8.98;;;;;;;;;;5091203;28;20046;-81
2023/02/22 11:55:59;;;;;;;17.75;7.68;;;;;;;;;;5091164;28;20115;-81
2023/02/22 11:58:33;;;;;;;21.92;9.80;;;;;;;;;;5092543;28;20012;-81
2023/02/22 12:01:10;;;;;;;22.23;9.60;;;;;;;;;;5093571;28;20125;-80
2023/02/22 12:03:51;;;;;;;21.60;10.32;;;;;;;;;;5093695;28;20455;-81
2023/02/22 12:06:18;;;;;;;25.50;10.88;;;;;;;;;;5090927;28;20020;-81
2023/02/22 12:08:46;;;;;;;20.13;9.00;;;;;;;;;;5092177;28;20023;-81
2023/02/22 12:11:11;;;;;;;20.95;10.02;;;;;;;;;;5090794;28;20035;-81
2023/02/22 12:13:56;;;;;;;22.55;11.25;;;;;;;;;;5091796;28;20016;-81
2023/02/22 12:16:21;;;;;;;23.73;12.32;;;;;;;;;;5092744;28;20475;-80
2023/02/22 12:18:58;;;;;;;25.08;10.38;;;;;;;;;;5092116;28;20028;-80
2023/02/22 12:21:25;;;;;;;23.20;10.73;;;;;;;;;;5093033;28;20024;-80
2023/02/22 12:23:50;;;;;;;30.33;9.70;;;;;;;;;;5091736;28;20131;-81
2023/02/22 12:26:19;;;;;;;24.95;10.85;;;;;;;;;;5090468;28;20106;-80
2023/02/22 12:28:58;;;;;;;26.13;10.43;;;;;;;;;;5092836;28;20096;-80
2023/02/22 12:31:46;;;;;;;24.48;9.65;;;;;;;;;;5093506;28;20022;-80
2023/02/22 12:34:26;;;;;;;21.45;10.35;;;;;;;;;;5092654;28;20045;-80
2023/02/22 12:36:53;;;;;;;28.52;11.48;;;;;;;;;;5091218;28;20115;-81
2023/02/22 12:39:37;;;;;;;25.33;12.05;;;;;;;;;;5091297;28;20039;-80
2023/02/22 12:42:07;;;;;;;24.08;12.30;;;;;;;;;;5092834;28;20380;-80
2023/02/22 12:44:34;;;;;;;22.38;10.77;;;;;;;;;;5088364;28;20021;-80
2023/02/22 12:47:01;;;;;;;22.73;11.85;;;;;;;;;;5079141;28;20024;-81
2023/02/22 12:49:32;;;;;;;22.30;12.32;;;;;;;;;;5089852;28;20020;-81
2023/02/22 12:52:12;;;;;;;26.88;11.95;;;;;;;;;;5092508;28;20069;-81
2023/02/22 12:54:49;;;;;;;23.75;12.98;;;;;;;;;;5092003;28;20020;-81
2023/02/22 12:57:23;;;;;;;25.83;12.55;;;;;;;;;;5092286;28;20043;-81
2023/02/22 12:59:50;;;;;;;29.45;14.23;;;;;;;;;;5092295;28;20027;-81
2023/02/22 13:02:15;;;;;;;23.40;11.02;;;;;;;;;;5092583;28;20024;-81
2023/02/22 13:04:41;;;;;;;27.25;14.50;;;;;;;;;;5091761;28;20020;-81
2023/02/22 13:07:32;;;;;;;29.50;13.48;;;;;;;;;;5091964;28;20020;-81
2023/02/22 13:09:57;;;;;;;25.52;12.48;;;;;;;;;;5091728;28;20423;-80
2023/02/22 13:12:30;;;;;;;26.30;12.65;;;;;;;;;;5092302;28;20111;-80
2023/02/22 13:15:05;;;;;;;25.60;12.00;;;;;;;;;;5092242;28;20465;-80
2023/02/22 13:17:54;;;;;;;30.17;12.60;;;;;;;;;;5090398;28;20567;-80
2023/02/22 13:20:19;;;;;;;26.67;14.07;;;;;;;;;;5080846;28;20112;-80
2023/02/22 13:22:56;;;;;;;25.50;13.25;;;;;;;;;;5090698;28;20031;-80
2023/02/22 13:25:25;;;;;;;24.25;11.25;;;;;;;;;;5088842;28;20134;-80
2023/02/22 13:27:54;;;;;;;25.17;12.70;;;;;;;;;;5091697;28;20153;-81
2023/02/22 13:30:28;;;;;;;26.73;13.05;;;;;;;;;;5091591;28;20046;-80
2023/02/22 13:32:56;;;;;;;25.30;12.38;;;;;;;;;;5092184;28;20023;-80
2023/02/22 13:35:28;;;;;;;26.30;13.40;;;;;;;;;;5089539;28;20031;-80
2023/02/22 13:37:59;;;;;;;28.67;14.50;;;;;;;;;;5090629;28;20024;-80
2023/02/22 13:40:27;;;;;;;25.17;12.50;;;;;;;;;;5090940;28;20024;-80
2023/02/22 13:42:53;;;;;;;30.25;13.73;;;;;;;;;;5090322;28;20184;-80
2023/02/22 13:45:39;;;;;;;31.30;13.25;;;;;;;;;;5076952;28;20337;-80
2023/02/22 13:48:08;;;;;;;28.92;14.32;;;;;;;;;;5067497;28;20435;-81
2023/02/22 13:50:48;;;;;;;28.25;13.50;;;;;;;;;;5066268;28;20157;-80
2023/02/22 13:53:16;;;;;;;30.73;15.32;;;;;;;;;;5076463;28;20039;-81
2023/02/22 13:55:45;;;;;;;28.77;13.82;;;;;;;;;;5073958;28;20028;-80
2023/02/22 13:58:11;;;;;;;30.45;14.50;;;;;;;;;;5092763;28;20074;-82
2023/02/22 14:00:39;;;;;;;31.05;16.08;;;;;;;;;;5086966;28;20532;-80
2023/02/22 14:03:07;;;;;;;28.58;14.10;;;;;;;;;;5070625;28;20020;-80
2023/02/22 14:05:42;;;;;;;34.35;15.48;;;;;;;;;;5083303;28;20027;-81
2023/02/22 14:08:16;;;;;;;32.90;15.45;;;;;;;;;;5089957;28;20395;-80
2023/02/22 14:10:58;;;;;;;30.10;13.77;;;;;;;;;;5077963;28;20025;-81
2023/02/22 14:13:27;;;;;;;37.40;15.32;;;;;;;;;;5063950;28;20048;-80
2023/02/22 14:16:01;;;;;;;29.90;15.23;;;;;;;;;;5070972;28;20488;-80
2023/02/22 14:18:45;;;;;;;28.55;14.18;;;;;;;;;;5069043;28;20016;-79
2023/02/22 14:21:21;;;;;;;34.05;16.20;;;;;;;;;;5109087;27;20381;-81
2023/02/22 14:23:50;;;;;;;31.35;15.02;;;;;;;;;;5086084;28;20087;-81
2023/02/22 14:26:26;;;;;;;29.83;15.00;;;;;;;;;;5098359;28;20019;-81
2023/02/22 14:28:53;;;;;;;36.45;18.33;;;;;;;;;;5089415;28;20017;-81
2023/02/22 14:31:20;;;;;;;43.08;19.65;;;;;;;;;;5104615;28;20541;-81
2023/02/22 14:33:54;;;;;;;37.80;16.38;;;;;;;;;;5086680;28;20024;-81